Airfield :







YOU CAN JOIN US ON...

 
LOGIN :

Register | Disclaimer

   EN    FR    IT 

 









Legend :    VFR   Marginal VFR   IFR   Intensive IFR   Very Intensive IFR
Visi :
Ceiling :
>= 8 km
>= 3000ft
5 to 8 km
1000 to 3000 ft
1500m to 5 km
500 to 1000 ft
800 to 1500m
200 to 500 ft
< 800m
< 200 ft
Symbols :   Thunderstorms  Fog  Heavy snow  Heavy precipitations  Wind > 20 kt






- Airport Elevation : 461 ft
- IATA code : YYT


CYYT - St John's Int

CURRENT METAR :
  • 151600Z 07019KT 2SM RA BR OVC003 09/09 A3017 RMK FG2SF8 /R10/ SLP224

EXPIRED METARs :
  • 151500Z 07016G25KT 2SM RA BR OVC003 09/09 A3017 RMK FG2SF6 SLP222
  • 151400Z 07018KT 1 1/2SM RA BR OVC003 09/09 A3017 RMK FG4SF4 SLP220

TAF TAF CYYT
Valid from the 15 at 12:00 until the 16 at 12:00 UTC


151138Z 1512/1612 06012G22KT 3/4SM -RA BR OVC002
TEMPO 1512/1516 6SM BR SCT002 OVC006
PROB30 1512/1516 1/2SM RA FG VV001
FM151600 06015G25KT 6SM -RA BR OVC006
TEMPO 1516/1523 2SM RA BR OVC003
PROB30 1516/1523 1/2SM RA FG VV001
FM152300 06015G25KT 1SM -SHRA BR OVC003
TEMPO 1523/1612 3SM BR OVC005
PROB30 1523/1612 1/2SM FG VV001 RMK NXT FCST BY 151800Z
CZQX FIR / North America



MET'MAP, your aeronautical weather chart ! - Copyright ORBIFLY December 2007 - Disclaimer

ORBIFLY MET'MAP TEAM :

Programming & Development : Alexandra Zaïnal
Concept & original design : Baudouin d'Aumeries
Assistance for programming : Marc-Olivier Méhu
Technical & hardware support : Manuel Goepfert

Contact : metmap@orbifly.com




SOURCES & CREDITS :

   NOAA